sensor_id;sensor_type;location;lat;lon;timestamp;temperature;humidity
39951;DHT22;25629;51.444;-2.606;2023-04-23T00:00:05;10.90;99.90
39951;DHT22;25629;51.444;-2.606;2023-04-23T00:02:31;10.90;99.90
39951;DHT22;25629;51.444;-2.606;2023-04-23T00:04:58;10.90;99.90
39951;DHT22;25629;51.444;-2.606;2023-04-23T00:07:26;10.90;99.90
39951;DHT22;25629;51.444;-2.606;2023-04-23T00:09:52;10.90;99.90
39951;DHT22;25629;51.444;-2.606;2023-04-23T00:12:20;10.90;99.90
39951;DHT22;25629;51.444;-2.606;2023-04-23T00:14:46;10.80;99.90
39951;DHT22;25629;51.444;-2.606;2023-04-23T00:17:12;10.80;99.90
39951;DHT22;25629;51.444;-2.606;2023-04-23T00:19:37;10.80;99.90
39951;DHT22;25629;51.444;-2.606;2023-04-23T00:22:03;10.80;99.90
39951;DHT22;25629;51.444;-2.606;2023-04-23T00:24:28;10.70;99.90
39951;DHT22;25629;51.444;-2.606;2023-04-23T00:26:56;10.60;99.90
39951;DHT22;25629;51.444;-2.606;2023-04-23T00:29:21;10.60;99.90
39951;DHT22;25629;51.444;-2.606;2023-04-23T00:31:47;10.60;99.90
39951;DHT22;25629;51.444;-2.606;2023-04-23T00:34:12;10.50;99.90
39951;DHT22;25629;51.444;-2.606;2023-04-23T00:36:38;10.40;99.90
39951;DHT22;25629;51.444;-2.606;2023-04-23T00:39:04;10.40;99.90
39951;DHT22;25629;51.444;-2.606;2023-04-23T00:41:30;10.30;99.90
39951;DHT22;25629;51.444;-2.606;2023-04-23T00:43:55;10.30;99.90
39951;DHT22;25629;51.444;-2.606;2023-04-23T00:46:22;10.30;99.90
39951;DHT22;25629;51.444;-2.606;2023-04-23T00:48:48;10.20;99.90
39951;DHT22;25629;51.444;-2.606;2023-04-23T00:51:15;10.20;99.90
39951;DHT22;25629;51.444;-2.606;2023-04-23T00:53:41;10.30;99.90
39951;DHT22;25629;51.444;-2.606;2023-04-23T00:56:06;10.30;99.90
39951;DHT22;25629;51.444;-2.606;2023-04-23T00:58:32;10.30;99.90
39951;DHT22;25629;51.444;-2.606;2023-04-23T01:00:58;10.30;99.90
39951;DHT22;25629;51.444;-2.606;2023-04-23T01:03:26;10.30;99.90
39951;DHT22;25629;51.444;-2.606;2023-04-23T01:05:51;10.30;99.90
39951;DHT22;25629;51.444;-2.606;2023-04-23T01:08:17;10.30;99.90
39951;DHT22;25629;51.444;-2.606;2023-04-23T01:10:43;10.30;99.90
39951;DHT22;25629;51.444;-2.606;2023-04-23T01:13:08;10.30;99.90
39951;DHT22;25629;51.444;-2.606;2023-04-23T01:15:34;10.30;99.90
39951;DHT22;25629;51.444;-2.606;2023-04-23T01:17:59;10.40;99.90
39951;DHT22;25629;51.444;-2.606;2023-04-23T01:20:26;10.30;99.90
39951;DHT22;25629;51.444;-2.606;2023-04-23T01:22:51;10.30;99.90
39951;DHT22;25629;51.444;-2.606;2023-04-23T01:25:17;10.30;99.90
39951;DHT22;25629;51.444;-2.606;2023-04-23T01:27:43;10.30;99.90
39951;DHT22;25629;51.444;-2.606;2023-04-23T01:30:08;10.30;99.90
39951;DHT22;25629;51.444;-2.606;2023-04-23T01:32:35;10.30;99.90
39951;DHT22;25629;51.444;-2.606;2023-04-23T01:35:01;10.30;99.90
39951;DHT22;25629;51.444;-2.606;2023-04-23T01:37:27;10.30;99.90
39951;DHT22;25629;51.444;-2.606;2023-04-23T01:39:53;10.30;99.90
39951;DHT22;25629;51.444;-2.606;2023-04-23T01:42:19;10.30;99.90
39951;DHT22;25629;51.444;-2.606;2023-04-23T01:44:44;10.20;99.90
39951;DHT22;25629;51.444;-2.606;2023-04-23T01:47:10;10.20;99.90
39951;DHT22;25629;51.444;-2.606;2023-04-23T01:49:36;10.30;99.90
39951;DHT22;25629;51.444;-2.606;2023-04-23T01:52:01;10.30;99.90
39951;DHT22;25629;51.444;-2.606;2023-04-23T01:54:27;10.30;99.90
39951;DHT22;25629;51.444;-2.606;2023-04-23T01:56:52;10.30;99.90
39951;DHT22;25629;51.444;-2.606;2023-04-23T01:59:20;10.20;99.90
39951;DHT22;25629;51.444;-2.606;2023-04-23T02:01:47;10.30;99.90
39951;DHT22;25629;51.444;-2.606;2023-04-23T02:04:13;10.30;99.90
39951;DHT22;25629;51.444;-2.606;2023-04-23T02:06:40;10.20;99.90
39951;DHT22;25629;51.444;-2.606;2023-04-23T02:09:06;10.20;99.90
39951;DHT22;25629;51.444;-2.606;2023-04-23T02:11:31;10.20;99.90
39951;DHT22;25629;51.444;-2.606;2023-04-23T02:13:57;10.20;99.90
39951;DHT22;25629;51.444;-2.606;2023-04-23T02:16:23;10.20;99.90
39951;DHT22;25629;51.444;-2.606;2023-04-23T02:18:48;10.10;99.90
39951;DHT22;25629;51.444;-2.606;2023-04-23T02:21:15;10.10;99.90
39951;DHT22;25629;51.444;-2.606;2023-04-23T02:23:40;10.10;99.90
39951;DHT22;25629;51.444;-2.606;2023-04-23T02:26:06;10.10;99.90
39951;DHT22;25629;51.444;-2.606;2023-04-23T02:28:32;10.10;99.90
39951;DHT22;25629;51.444;-2.606;2023-04-23T02:30:57;10.20;99.90
39951;DHT22;25629;51.444;-2.606;2023-04-23T02:33:23;10.10;99.90
39951;DHT22;25629;51.444;-2.606;2023-04-23T02:35:50;10.10;99.90
39951;DHT22;25629;51.444;-2.606;2023-04-23T02:38:15;10.10;99.90
39951;DHT22;25629;51.444;-2.606;2023-04-23T02:40:41;10.20;99.90
39951;DHT22;25629;51.444;-2.606;2023-04-23T02:43:08;10.20;99.90
39951;DHT22;25629;51.444;-2.606;2023-04-23T02:45:33;10.20;99.90
39951;DHT22;25629;51.444;-2.606;2023-04-23T02:47:59;10.10;99.90
39951;DHT22;25629;51.444;-2.606;2023-04-23T02:50:24;10.10;99.90
39951;DHT22;25629;51.444;-2.606;2023-04-23T02:52:52;10.10;99.90
39951;DHT22;25629;51.444;-2.606;2023-04-23T02:55:17;10.20;99.90
39951;DHT22;25629;51.444;-2.606;2023-04-23T02:57:43;10.20;99.90
39951;DHT22;25629;51.444;-2.606;2023-04-23T03:00:09;10.20;99.90
39951;DHT22;25629;51.444;-2.606;2023-04-23T03:02:37;10.20;99.90
39951;DHT22;25629;51.444;-2.606;2023-04-23T03:05:03;10.10;99.90
39951;DHT22;25629;51.444;-2.606;2023-04-23T03:07:28;10.10;99.90
39951;DHT22;25629;51.444;-2.606;2023-04-23T03:09:54;10.10;99.90
39951;DHT22;25629;51.444;-2.606;2023-04-23T03:12:19;10.00;99.90
39951;DHT22;25629;51.444;-2.606;2023-04-23T03:14:45;10.00;99.90
39951;DHT22;25629;51.444;-2.606;2023-04-23T03:17:10;10.00;99.90
39951;DHT22;25629;51.444;-2.606;2023-04-23T03:19:36;10.00;99.90
39951;DHT22;25629;51.444;-2.606;2023-04-23T03:22:02;10.00;99.90
39951;DHT22;25629;51.444;-2.606;2023-04-23T03:24:31;10.00;99.90
39951;DHT22;25629;51.444;-2.606;2023-04-23T03:26:56;10.00;99.90
39951;DHT22;25629;51.444;-2.606;2023-04-23T03:29:22;10.00;99.90
39951;DHT22;25629;51.444;-2.606;2023-04-23T03:31:48;10.00;99.90
39951;DHT22;25629;51.444;-2.606;2023-04-23T03:34:13;10.00;99.90
39951;DHT22;25629;51.444;-2.606;2023-04-23T03:36:39;10.00;99.90
39951;DHT22;25629;51.444;-2.606;2023-04-23T03:39:05;10.00;99.90
39951;DHT22;25629;51.444;-2.606;2023-04-23T03:41:31;10.00;99.90
39951;DHT22;25629;51.444;-2.606;2023-04-23T03:43:57;10.00;99.90
39951;DHT22;25629;51.444;-2.606;2023-04-23T03:46:22;10.00;99.90
39951;DHT22;25629;51.444;-2.606;2023-04-23T03:48:48;10.00;99.90
39951;DHT22;25629;51.444;-2.606;2023-04-23T03:51:13;10.00;99.90
39951;DHT22;25629;51.444;-2.606;2023-04-23T03:53:39;10.00;99.90
39951;DHT22;25629;51.444;-2.606;2023-04-23T03:56:04;10.00;99.90
39951;DHT22;25629;51.444;-2.606;2023-04-23T03:58:30;10.00;99.90
39951;DHT22;25629;51.444;-2.606;2023-04-23T04:00:56;10.00;99.90
39951;DHT22;25629;51.444;-2.606;2023-04-23T04:03:21;10.00;99.90
39951;DHT22;25629;51.444;-2.606;2023-04-23T04:05:47;10.00;99.90
39951;DHT22;25629;51.444;-2.606;2023-04-23T04:08:12;10.00;99.90
39951;DHT22;25629;51.444;-2.606;2023-04-23T04:10:38;10.00;99.90
39951;DHT22;25629;51.444;-2.606;2023-04-23T04:13:05;10.00;99.90
39951;DHT22;25629;51.444;-2.606;2023-04-23T04:15:30;10.00;99.90
39951;DHT22;25629;51.444;-2.606;2023-04-23T04:17:57;10.00;99.90
39951;DHT22;25629;51.444;-2.606;2023-04-23T04:20:23;10.00;99.90
39951;DHT22;25629;51.444;-2.606;2023-04-23T04:22:48;9.90;99.90
39951;DHT22;25629;51.444;-2.606;2023-04-23T04:25:14;9.90;99.90
39951;DHT22;25629;51.444;-2.606;2023-04-23T04:27:39;9.90;99.90
39951;DHT22;25629;51.444;-2.606;2023-04-23T04:30:06;9.80;99.90
39951;DHT22;25629;51.444;-2.606;2023-04-23T04:32:31;9.80;99.90
39951;DHT22;25629;51.444;-2.606;2023-04-23T04:34:57;9.70;99.90
39951;DHT22;25629;51.444;-2.606;2023-04-23T04:37:23;9.70;99.90
39951;DHT22;25629;51.444;-2.606;2023-04-23T04:39:48;9.70;99.90
39951;DHT22;25629;51.444;-2.606;2023-04-23T04:42:14;9.70;99.90
39951;DHT22;25629;51.444;-2.606;2023-04-23T04:44:40;9.70;99.90
39951;DHT22;25629;51.444;-2.606;2023-04-23T04:47:06;9.60;99.90
39951;DHT22;25629;51.444;-2.606;2023-04-23T04:49:32;9.70;99.90
39951;DHT22;25629;51.444;-2.606;2023-04-23T04:51:57;9.60;99.90
39951;DHT22;25629;51.444;-2.606;2023-04-23T04:54:23;9.60;99.90
39951;DHT22;25629;51.444;-2.606;2023-04-23T04:56:48;9.60;99.90
39951;DHT22;25629;51.444;-2.606;2023-04-23T04:59:14;9.60;99.90
39951;DHT22;25629;51.444;-2.606;2023-04-23T05:01:40;9.50;99.90
39951;DHT22;25629;51.444;-2.606;2023-04-23T05:04:05;9.60;99.90
39951;DHT22;25629;51.444;-2.606;2023-04-23T05:06:31;9.60;99.90
39951;DHT22;25629;51.444;-2.606;2023-04-23T05:08:57;9.70;99.90
39951;DHT22;25629;51.444;-2.606;2023-04-23T05:11:22;9.70;99.90
39951;DHT22;25629;51.444;-2.606;2023-04-23T05:13:48;9.80;99.90
39951;DHT22;25629;51.444;-2.606;2023-04-23T05:16:13;9.80;99.90
39951;DHT22;25629;51.444;-2.606;2023-04-23T05:18:39;9.80;99.90
39951;DHT22;25629;51.444;-2.606;2023-04-23T05:21:05;9.80;99.90
39951;DHT22;25629;51.444;-2.606;2023-04-23T05:23:32;9.80;99.90
39951;DHT22;25629;51.444;-2.606;2023-04-23T05:25:57;9.80;99.90
39951;DHT22;25629;51.444;-2.606;2023-04-23T05:28:23;9.80;99.90
39951;DHT22;25629;51.444;-2.606;2023-04-23T05:30:49;9.80;99.90
39951;DHT22;25629;51.444;-2.606;2023-04-23T05:33:15;9.80;99.90
39951;DHT22;25629;51.444;-2.606;2023-04-23T05:35:40;9.80;99.90
39951;DHT22;25629;51.444;-2.606;2023-04-23T05:38:06;9.80;99.90
39951;DHT22;25629;51.444;-2.606;2023-04-23T05:40:31;9.70;99.90
39951;DHT22;25629;51.444;-2.606;2023-04-23T05:42:57;9.70;99.90
39951;DHT22;25629;51.444;-2.606;2023-04-23T05:45:23;9.60;99.90
39951;DHT22;25629;51.444;-2.606;2023-04-23T05:47:49;9.50;99.90
39951;DHT22;25629;51.444;-2.606;2023-04-23T05:50:16;9.40;99.90
39951;DHT22;25629;51.444;-2.606;2023-04-23T05:52:42;9.40;99.90
39951;DHT22;25629;51.444;-2.606;2023-04-23T05:55:07;9.40;99.90
39951;DHT22;25629;51.444;-2.606;2023-04-23T05:57:34;9.50;99.90
39951;DHT22;25629;51.444;-2.606;2023-04-23T06:00:00;9.50;99.90
39951;DHT22;25629;51.444;-2.606;2023-04-23T06:02:26;9.60;99.90
39951;DHT22;25629;51.444;-2.606;2023-04-23T06:04:53;9.60;99.90
39951;DHT22;25629;51.444;-2.606;2023-04-23T06:07:19;9.60;99.90
39951;DHT22;25629;51.444;-2.606;2023-04-23T06:09:44;9.60;99.90
39951;DHT22;25629;51.444;-2.606;2023-04-23T06:12:10;9.70;99.90
39951;DHT22;25629;51.444;-2.606;2023-04-23T06:14:36;9.60;99.90
39951;DHT22;25629;51.444;-2.606;2023-04-23T06:17:01;9.70;99.90
39951;DHT22;25629;51.444;-2.606;2023-04-23T06:19:27;9.70;99.90
39951;DHT22;25629;51.444;-2.606;2023-04-23T06:21:53;9.60;99.90
39951;DHT22;25629;51.444;-2.606;2023-04-23T06:24:18;9.60;99.90
39951;DHT22;25629;51.444;-2.606;2023-04-23T06:26:44;9.60;99.90
39951;DHT22;25629;51.444;-2.606;2023-04-23T06:29:10;9.60;99.90
39951;DHT22;25629;51.444;-2.606;2023-04-23T06:31:36;9.60;99.90
39951;DHT22;25629;51.444;-2.606;2023-04-23T06:34:01;9.60;99.90
39951;DHT22;25629;51.444;-2.606;2023-04-23T06:36:27;9.60;99.90
39951;DHT22;25629;51.444;-2.606;2023-04-23T06:38:53;9.50;99.90
39951;DHT22;25629;51.444;-2.606;2023-04-23T06:41:18;9.60;99.90
39951;DHT22;25629;51.444;-2.606;2023-04-23T06:43:45;9.70;99.90
39951;DHT22;25629;51.444;-2.606;2023-04-23T06:46:12;9.80;99.90
39951;DHT22;25629;51.444;-2.606;2023-04-23T06:48:38;9.90;99.90
39951;DHT22;25629;51.444;-2.606;2023-04-23T06:51:04;10.00;99.90
39951;DHT22;25629;51.444;-2.606;2023-04-23T06:53:30;10.10;99.90
39951;DHT22;25629;51.444;-2.606;2023-04-23T06:55:56;10.20;99.90
39951;DHT22;25629;51.444;-2.606;2023-04-23T06:58:21;10.30;99.90
39951;DHT22;25629;51.444;-2.606;2023-04-23T07:00:51;10.30;99.90
39951;DHT22;25629;51.444;-2.606;2023-04-23T07:03:17;10.40;99.90
39951;DHT22;25629;51.444;-2.606;2023-04-23T07:05:43;10.50;99.90
39951;DHT22;25629;51.444;-2.606;2023-04-23T07:08:08;10.60;99.90
39951;DHT22;25629;51.444;-2.606;2023-04-23T07:10:34;10.70;99.90
39951;DHT22;25629;51.444;-2.606;2023-04-23T07:13:00;10.80;99.90
39951;DHT22;25629;51.444;-2.606;2023-04-23T07:15:25;10.90;99.90
39951;DHT22;25629;51.444;-2.606;2023-04-23T07:17:51;10.90;99.90
39951;DHT22;25629;51.444;-2.606;2023-04-23T07:20:17;10.90;99.90
39951;DHT22;25629;51.444;-2.606;2023-04-23T07:22:44;11.00;99.90
39951;DHT22;25629;51.444;-2.606;2023-04-23T07:25:09;11.10;99.90
39951;DHT22;25629;51.444;-2.606;2023-04-23T07:27:35;11.20;99.90
39951;DHT22;25629;51.444;-2.606;2023-04-23T07:30:01;11.30;99.90
39951;DHT22;25629;51.444;-2.606;2023-04-23T07:32:27;11.30;99.90
39951;DHT22;25629;51.444;-2.606;2023-04-23T07:34:55;11.30;99.90
39951;DHT22;25629;51.444;-2.606;2023-04-23T07:37:21;11.30;99.90
39951;DHT22;25629;51.444;-2.606;2023-04-23T07:39:47;11.30;99.90
39951;DHT22;25629;51.444;-2.606;2023-04-23T07:42:13;11.20;99.90
39951;DHT22;25629;51.444;-2.606;2023-04-23T07:44:38;11.20;99.90
39951;DHT22;25629;51.444;-2.606;2023-04-23T07:47:04;11.30;99.90
39951;DHT22;25629;51.444;-2.606;2023-04-23T07:49:29;11.40;99.90
39951;DHT22;25629;51.444;-2.606;2023-04-23T07:51:55;11.40;99.90
39951;DHT22;25629;51.444;-2.606;2023-04-23T07:54:21;11.40;99.90
39951;DHT22;25629;51.444;-2.606;2023-04-23T07:56:47;11.50;99.90
39951;DHT22;25629;51.444;-2.606;2023-04-23T07:59:12;11.60;99.90
39951;DHT22;25629;51.444;-2.606;2023-04-23T08:01:38;11.80;97.00
39951;DHT22;25629;51.444;-2.606;2023-04-23T08:04:03;11.80;92.20
39951;DHT22;25629;51.444;-2.606;2023-04-23T08:06:29;11.70;92.60
39951;DHT22;25629;51.444;-2.606;2023-04-23T08:08:55;11.70;95.10
39951;DHT22;25629;51.444;-2.606;2023-04-23T08:11:21;11.90;94.00
39951;DHT22;25629;51.444;-2.606;2023-04-23T08:13:47;12.00;93.00
39951;DHT22;25629;51.444;-2.606;2023-04-23T08:16:13;12.30;85.30
39951;DHT22;25629;51.444;-2.606;2023-04-23T08:18:39;12.50;74.50
39951;DHT22;25629;51.444;-2.606;2023-04-23T08:21:04;12.50;62.30
39951;DHT22;25629;51.444;-2.606;2023-04-23T08:23:30;12.30;59.70
39951;DHT22;25629;51.444;-2.606;2023-04-23T08:25:55;12.30;72.00
39951;DHT22;25629;51.444;-2.606;2023-04-23T08:28:21;12.40;64.20
39951;DHT22;25629;51.444;-2.606;2023-04-23T08:30:47;12.40;44.50
39951;DHT22;25629;51.444;-2.606;2023-04-23T08:33:12;12.50;52.60
39951;DHT22;25629;51.444;-2.606;2023-04-23T08:35:38;12.70;55.60
39951;DHT22;25629;51.444;-2.606;2023-04-23T08:38:04;12.90;42.70
39951;DHT22;25629;51.444;-2.606;2023-04-23T08:40:30;13.00;12.00
39951;DHT22;25629;51.444;-2.606;2023-04-23T08:45:21;13.30;1.00
39951;DHT22;25629;51.444;-2.606;2023-04-23T08:47:47;13.50;99.90
39951;DHT22;25629;51.444;-2.606;2023-04-23T08:50:13;13.80;99.90
39951;DHT22;25629;51.444;-2.606;2023-04-23T08:52:46;14.30;99.90
39951;DHT22;25629;51.444;-2.606;2023-04-23T08:55:12;14.50;99.90
39951;DHT22;25629;51.444;-2.606;2023-04-23T08:57:39;14.30;99.90
39951;DHT22;25629;51.444;-2.606;2023-04-23T09:00:08;14.00;99.90
39951;DHT22;25629;51.444;-2.606;2023-04-23T09:02:48;13.90;99.90
39951;DHT22;25629;51.444;-2.606;2023-04-23T09:05:15;13.60;99.90
39951;DHT22;25629;51.444;-2.606;2023-04-23T09:07:41;13.40;99.90
39951;DHT22;25629;51.444;-2.606;2023-04-23T09:10:08;13.20;1.00
39951;DHT22;25629;51.444;-2.606;2023-04-23T09:12:34;13.10;1.00
39951;DHT22;25629;51.444;-2.606;2023-04-23T09:15:01;13.10;99.90
39951;DHT22;25629;51.444;-2.606;2023-04-23T09:17:27;13.20;99.90
39951;DHT22;25629;51.444;-2.606;2023-04-23T09:19:53;13.40;1.00
39951;DHT22;25629;51.444;-2.606;2023-04-23T09:25:03;14.00;99.90
39951;DHT22;25629;51.444;-2.606;2023-04-23T09:27:30;14.30;99.90
39951;DHT22;25629;51.444;-2.606;2023-04-23T09:29:55;14.70;1.00
39951;DHT22;25629;51.444;-2.606;2023-04-23T09:32:29;15.20;1.00
39951;DHT22;25629;51.444;-2.606;2023-04-23T09:34:55;15.50;1.00
39951;DHT22;25629;51.444;-2.606;2023-04-23T09:37:24;16.00;99.90
39951;DHT22;25629;51.444;-2.606;2023-04-23T09:39:49;15.90;99.90
39951;DHT22;25629;51.444;-2.606;2023-04-23T09:42:19;16.00;99.90
39951;DHT22;25629;51.444;-2.606;2023-04-23T09:44:53;16.00;58.30
39951;DHT22;25629;51.444;-2.606;2023-04-23T09:47:20;15.80;89.20
39951;DHT22;25629;51.444;-2.606;2023-04-23T09:49:49;15.70;99.90
39951;DHT22;25629;51.444;-2.606;2023-04-23T09:52:14;15.60;99.90
39951;DHT22;25629;51.444;-2.606;2023-04-23T09:54:40;15.30;99.90
39951;DHT22;25629;51.444;-2.606;2023-04-23T09:57:06;15.10;99.90
39951;DHT22;25629;51.444;-2.606;2023-04-23T09:59:33;14.80;99.90
39951;DHT22;25629;51.444;-2.606;2023-04-23T10:02:09;14.80;99.90
39951;DHT22;25629;51.444;-2.606;2023-04-23T10:04:36;15.20;99.90
39951;DHT22;25629;51.444;-2.606;2023-04-23T10:07:03;15.80;99.90
39951;DHT22;25629;51.444;-2.606;2023-04-23T10:09:29;16.40;99.90
39951;DHT22;25629;51.444;-2.606;2023-04-23T10:11:59;16.50;99.90
39951;DHT22;25629;51.444;-2.606;2023-04-23T10:14:27;16.00;87.20
39951;DHT22;25629;51.444;-2.606;2023-04-23T10:16:59;15.30;38.20
39951;DHT22;25629;51.444;-2.606;2023-04-23T10:19:25;14.90;66.50
39951;DHT22;25629;51.444;-2.606;2023-04-23T10:24:23;14.60;99.90
39951;DHT22;25629;51.444;-2.606;2023-04-23T10:26:52;14.90;99.90
39951;DHT22;25629;51.444;-2.606;2023-04-23T10:29:24;15.50;99.90
39951;DHT22;25629;51.444;-2.606;2023-04-23T10:31:51;16.00;36.00
39951;DHT22;25629;51.444;-2.606;2023-04-23T10:34:17;16.30;1.00
39951;DHT22;25629;51.444;-2.606;2023-04-23T10:36:43;16.10;1.00
39951;DHT22;25629;51.444;-2.606;2023-04-23T10:39:09;16.10;1.00
39951;DHT22;25629;51.444;-2.606;2023-04-23T10:41:35;16.00;1.00
39951;DHT22;25629;51.444;-2.606;2023-04-23T10:44:04;15.90;1.00
39951;DHT22;25629;51.444;-2.606;2023-04-23T10:46:30;15.80;1.00
39951;DHT22;25629;51.444;-2.606;2023-04-23T10:49:14;15.90;1.00
39951;DHT22;25629;51.444;-2.606;2023-04-23T10:51:41;16.00;1.00
39951;DHT22;25629;51.444;-2.606;2023-04-23T10:54:09;16.30;1.00
39951;DHT22;25629;51.444;-2.606;2023-04-23T10:56:36;16.30;1.00
39951;DHT22;25629;51.444;-2.606;2023-04-23T10:59:04;16.70;1.00
39951;DHT22;25629;51.444;-2.606;2023-04-23T11:01:29;17.10;1.00
39951;DHT22;25629;51.444;-2.606;2023-04-23T11:03:55;17.20;1.00
39951;DHT22;25629;51.444;-2.606;2023-04-23T11:11:53;17.70;1.00
39951;DHT22;25629;51.444;-2.606;2023-04-23T11:14:19;18.10;1.00
39951;DHT22;25629;51.444;-2.606;2023-04-23T11:16:44;17.70;1.00
39951;DHT22;25629;51.444;-2.606;2023-04-23T11:19:10;17.50;1.00
39951;DHT22;25629;51.444;-2.606;2023-04-23T11:24:28;17.80;1.00
39951;DHT22;25629;51.444;-2.606;2023-04-23T11:26:54;17.40;1.00
39951;DHT22;25629;51.444;-2.606;2023-04-23T11:29:21;16.90;1.00
39951;DHT22;25629;51.444;-2.606;2023-04-23T11:31:54;16.90;1.00
39951;DHT22;25629;51.444;-2.606;2023-04-23T11:34:20;17.00;1.00
39951;DHT22;25629;51.444;-2.606;2023-04-23T11:36:47;17.00;1.00
39951;DHT22;25629;51.444;-2.606;2023-04-23T11:39:13;17.20;1.00
39951;DHT22;25629;51.444;-2.606;2023-04-23T11:41:39;17.70;1.00
39951;DHT22;25629;51.444;-2.606;2023-04-23T11:44:04;17.80;1.00
39951;DHT22;25629;51.444;-2.606;2023-04-23T11:46:31;17.90;1.00
39951;DHT22;25629;51.444;-2.606;2023-04-23T11:48:58;18.00;1.00
39951;DHT22;25629;51.444;-2.606;2023-04-23T11:51:24;18.20;1.00
39951;DHT22;25629;51.444;-2.606;2023-04-23T11:53:50;18.50;1.00
39951;DHT22;25629;51.444;-2.606;2023-04-23T11:56:16;18.60;1.00
39951;DHT22;25629;51.444;-2.606;2023-04-23T11:58:45;18.00;1.00
39951;DHT22;25629;51.444;-2.606;2023-04-23T12:01:11;17.40;1.00
39951;DHT22;25629;51.444;-2.606;2023-04-23T12:03:37;17.50;1.00
39951;DHT22;25629;51.444;-2.606;2023-04-23T12:06:03;17.80;1.00
39951;DHT22;25629;51.444;-2.606;2023-04-23T12:08:31;17.80;99.90
39951;DHT22;25629;51.444;-2.606;2023-04-23T12:10:59;17.80;1.00
39951;DHT22;25629;51.444;-2.606;2023-04-23T12:13:26;17.70;1.00
39951;DHT22;25629;51.444;-2.606;2023-04-23T12:15:53;17.50;1.00
39951;DHT22;25629;51.444;-2.606;2023-04-23T12:18:28;17.20;1.00
39951;DHT22;25629;51.444;-2.606;2023-04-23T12:20:54;16.80;1.00
39951;DHT22;25629;51.444;-2.606;2023-04-23T12:23:26;16.20;1.00
39951;DHT22;25629;51.444;-2.606;2023-04-23T12:25:55;16.00;1.00
39951;DHT22;25629;51.444;-2.606;2023-04-23T12:28:24;15.40;1.00
39951;DHT22;25629;51.444;-2.606;2023-04-23T12:30:50;15.30;1.00
39951;DHT22;25629;51.444;-2.606;2023-04-23T12:33:16;15.00;1.00
39951;DHT22;25629;51.444;-2.606;2023-04-23T12:35:42;14.70;95.00
39951;DHT22;25629;51.444;-2.606;2023-04-23T12:38:20;14.50;99.90
39951;DHT22;25629;51.444;-2.606;2023-04-23T12:40:46;14.20;99.90
39951;DHT22;25629;51.444;-2.606;2023-04-23T12:43:12;13.90;1.00
39951;DHT22;25629;51.444;-2.606;2023-04-23T12:45:38;13.70;99.90
39951;DHT22;25629;51.444;-2.606;2023-04-23T12:48:03;13.50;99.90
39951;DHT22;25629;51.444;-2.606;2023-04-23T12:50:29;13.60;99.90
39951;DHT22;25629;51.444;-2.606;2023-04-23T12:52:55;13.50;99.90
39951;DHT22;25629;51.444;-2.606;2023-04-23T12:55:20;13.40;99.90
39951;DHT22;25629;51.444;-2.606;2023-04-23T12:57:46;13.30;99.90
39951;DHT22;25629;51.444;-2.606;2023-04-23T13:00:12;13.30;99.90
39951;DHT22;25629;51.444;-2.606;2023-04-23T13:02:37;13.20;97.10
39951;DHT22;25629;51.444;-2.606;2023-04-23T13:05:03;13.20;91.30
39951;DHT22;25629;51.444;-2.606;2023-04-23T13:07:29;13.20;91.60
39951;DHT22;25629;51.444;-2.606;2023-04-23T13:09:55;13.20;99.90
39951;DHT22;25629;51.444;-2.606;2023-04-23T13:12:21;13.30;99.90
39951;DHT22;25629;51.444;-2.606;2023-04-23T13:14:47;13.20;99.90
39951;DHT22;25629;51.444;-2.606;2023-04-23T13:17:13;13.10;99.90
39951;DHT22;25629;51.444;-2.606;2023-04-23T13:19:39;12.90;99.90
39951;DHT22;25629;51.444;-2.606;2023-04-23T13:22:04;12.80;99.90
39951;DHT22;25629;51.444;-2.606;2023-04-23T13:24:31;12.70;5.40
39951;DHT22;25629;51.444;-2.606;2023-04-23T13:26:56;12.60;1.00
39951;DHT22;25629;51.444;-2.606;2023-04-23T13:29:22;12.50;99.90
39951;DHT22;25629;51.444;-2.606;2023-04-23T13:31:48;12.50;99.90
39951;DHT22;25629;51.444;-2.606;2023-04-23T13:34:14;12.70;99.90
39951;DHT22;25629;51.444;-2.606;2023-04-23T13:36:39;12.90;1.00
39951;DHT22;25629;51.444;-2.606;2023-04-23T13:39:08;12.90;1.00
39951;DHT22;25629;51.444;-2.606;2023-04-23T13:41:34;13.10;99.90
39951;DHT22;25629;51.444;-2.606;2023-04-23T13:43:59;13.30;1.00
39951;DHT22;25629;51.444;-2.606;2023-04-23T13:46:25;13.50;99.90
39951;DHT22;25629;51.444;-2.606;2023-04-23T13:48:54;13.60;1.00
39951;DHT22;25629;51.444;-2.606;2023-04-23T13:51:20;13.70;1.00
39951;DHT22;25629;51.444;-2.606;2023-04-23T13:53:46;13.90;1.00
39951;DHT22;25629;51.444;-2.606;2023-04-23T13:56:12;14.20;99.90
39951;DHT22;25629;51.444;-2.606;2023-04-23T13:58:37;14.10;99.90
39951;DHT22;25629;51.444;-2.606;2023-04-23T14:01:07;14.10;99.90
39951;DHT22;25629;51.444;-2.606;2023-04-23T14:03:33;14.00;99.90
39951;DHT22;25629;51.444;-2.606;2023-04-23T14:05:58;14.00;99.90
39951;DHT22;25629;51.444;-2.606;2023-04-23T14:08:24;14.10;99.90
39951;DHT22;25629;51.444;-2.606;2023-04-23T14:10:49;14.40;1.00
39951;DHT22;25629;51.444;-2.606;2023-04-23T14:13:15;14.70;99.90
39951;DHT22;25629;51.444;-2.606;2023-04-23T14:15:41;14.80;1.00
39951;DHT22;25629;51.444;-2.606;2023-04-23T14:18:07;14.60;1.00
39951;DHT22;25629;51.444;-2.606;2023-04-23T14:20:32;14.30;99.90
39951;DHT22;25629;51.444;-2.606;2023-04-23T14:25:56;14.40;99.90
39951;DHT22;25629;51.444;-2.606;2023-04-23T14:28:28;14.40;99.90
39951;DHT22;25629;51.444;-2.606;2023-04-23T14:30:57;14.50;1.00
39951;DHT22;25629;51.444;-2.606;2023-04-23T14:33:24;14.60;99.90
39951;DHT22;25629;51.444;-2.606;2023-04-23T14:35:50;14.40;99.90
39951;DHT22;25629;51.444;-2.606;2023-04-23T14:38:15;14.30;99.90
39951;DHT22;25629;51.444;-2.606;2023-04-23T14:40:41;14.10;87.20
39951;DHT22;25629;51.444;-2.606;2023-04-23T14:43:07;13.90;46.80
39951;DHT22;25629;51.444;-2.606;2023-04-23T14:45:32;13.80;99.90
39951;DHT22;25629;51.444;-2.606;2023-04-23T14:47:58;13.80;1.00
39951;DHT22;25629;51.444;-2.606;2023-04-23T14:50:24;14.00;19.90
39951;DHT22;25629;51.444;-2.606;2023-04-23T14:52:49;14.00;1.00
39951;DHT22;25629;51.444;-2.606;2023-04-23T14:55:15;13.80;5.60
39951;DHT22;25629;51.444;-2.606;2023-04-23T14:57:41;13.50;99.90
39951;DHT22;25629;51.444;-2.606;2023-04-23T15:00:07;13.30;1.00
39951;DHT22;25629;51.444;-2.606;2023-04-23T15:02:37;13.10;1.00
39951;DHT22;25629;51.444;-2.606;2023-04-23T15:05:03;12.90;99.90
39951;DHT22;25629;51.444;-2.606;2023-04-23T15:07:29;13.00;1.00
39951;DHT22;25629;51.444;-2.606;2023-04-23T15:09:57;12.90;99.90
39951;DHT22;25629;51.444;-2.606;2023-04-23T15:15:13;12.80;99.90
39951;DHT22;25629;51.444;-2.606;2023-04-23T15:17:39;13.00;99.90
39951;DHT22;25629;51.444;-2.606;2023-04-23T15:20:05;13.20;99.90
39951;DHT22;25629;51.444;-2.606;2023-04-23T15:22:31;13.40;99.90
39951;DHT22;25629;51.444;-2.606;2023-04-23T15:24:56;13.90;1.00
39951;DHT22;25629;51.444;-2.606;2023-04-23T15:27:22;14.70;99.90
39951;DHT22;25629;51.444;-2.606;2023-04-23T15:29:48;16.50;99.90
39951;DHT22;25629;51.444;-2.606;2023-04-23T15:32:14;17.70;95.50
39951;DHT22;25629;51.444;-2.606;2023-04-23T15:34:40;18.20;65.40
39951;DHT22;25629;51.444;-2.606;2023-04-23T15:37:06;17.90;1.00